Time;durP1;ratioP1;P1;durP2;ratioP2;P2;SDS_P1;SDS_P2;PMS_P1;PMS_P2;Temp;Humidity;BMP_temperature;BMP_pressure;BME280_temperature;BME280_humidity;BME280_pressure;Samples;Min_cycle;Max_cycle;Signal;HPM_P1;HPM_P2
2022/02/04 00:20:30;;;;;;;47.15;21.42;;;;;;;-0.07;100.00;99657.16;4988848;28;20128;-55
2022/02/04 00:23:20;;;;;;;50.75;21.88;;;;;;;-0.13;100.00;99639.69;4968028;28;20061;-56
2022/02/04 00:26:14;;;;;;;50.50;21.23;;;;;;;-0.04;100.00;99654.59;4990976;28;20049;-59
2022/02/04 00:31:49;;;;;;;53.97;22.63;;;;;;;-0.04;100.00;99659.81;4974214;28;20053;-55
2022/02/04 00:34:40;;;;;;;46.90;22.77;;;;;;;-0.14;100.00;99663.97;4987680;28;20423;-57
2022/02/04 00:37:41;;;;;;;55.58;22.95;;;;;;;-0.15;100.00;99669.16;4982101;28;20049;-55
2022/02/04 00:40:33;;;;;;;54.72;23.05;;;;;;;-0.11;100.00;99668.38;4969653;28;20053;-59
2022/02/04 00:43:19;;;;;;;52.83;23.13;;;;;;;-0.14;100.00;99661.38;4947951;28;20061;-61
2022/02/04 00:46:18;;;;;;;55.45;23.40;;;;;;;-0.16;100.00;99667.38;4979979;28;20900;-58
2022/02/04 00:49:16;;;;;;;51.92;23.30;;;;;;;-0.25;100.00;99643.75;4974030;28;20485;-56
2022/02/04 00:52:24;;;;;;;58.85;23.70;;;;;;;-0.20;100.00;99663.84;4982134;28;20077;-58
2022/02/04 01:06:29;;;;;;;49.13;22.35;;;;;;;-0.46;100.00;99669.34;4979004;28;20069;-56
2022/02/04 01:28:12;;;;;;;54.72;21.88;;;;;;;-1.07;100.00;99695.69;4966468;28;20077;-60
2022/02/04 01:30:57;;;;;;;51.78;23.02;;;;;;;-1.13;100.00;99692.94;4965874;28;20058;-58
2022/02/04 01:33:42;;;;;;;60.58;24.00;;;;;;;-1.16;100.00;99685.06;4968601;28;20569;-58
2022/02/04 01:36:27;;;;;;;58.35;22.73;;;;;;;-1.16;100.00;99692.88;4975000;28;20096;-59
2022/02/04 01:39:11;;;;;;;55.78;24.38;;;;;;;-1.16;100.00;99697.19;4970966;28;20093;-57
2022/02/04 01:41:56;;;;;;;56.72;24.60;;;;;;;-1.27;100.00;99689.09;4968440;28;20062;-58
2022/02/04 01:44:40;;;;;;;61.72;25.83;;;;;;;-1.35;100.00;99681.94;4966296;28;20054;-58
2022/02/04 01:47:25;;;;;;;62.95;25.67;;;;;;;-1.62;100.00;99647.47;4980669;28;20107;-58
2022/02/04 01:50:09;;;;;;;65.13;26.38;;;;;;;-1.45;100.00;99700.75;4987347;28;20443;-57
2022/02/04 01:52:59;;;;;;;67.47;28.23;;;;;;;-1.51;100.00;99685.00;4969757;28;20546;-59
2022/02/04 01:55:45;;;;;;;66.22;29.77;;;;;;;-1.46;100.00;99699.00;4974723;28;20056;-59
2022/02/04 01:58:30;;;;;;;68.95;28.80;;;;;;;-1.55;100.00;99696.16;4983789;28;20205;-58
2022/02/04 02:01:15;;;;;;;79.30;34.63;;;;;;;-1.63;100.00;99695.06;4973673;28;20486;-58
2022/02/04 02:04:02;;;;;;;80.25;35.67;;;;;;;-1.69;100.00;99693.22;4966158;28;20104;-60
2022/02/04 02:06:57;;;;;;;84.30;35.80;;;;;;;-1.64;100.00;99699.41;4978605;28;20076;-58
2022/02/04 02:10:28;;;;;;;81.45;33.22;;;;;;;-1.84;100.00;99691.91;4976649;28;20434;-56
2022/02/04 02:13:01;;;;;;;78.25;35.28;;;;;;;-1.84;100.00;99692.78;4964695;28;20097;-57
2022/02/04 02:57:46;;;;;;;92.45;36.08;;;;;;;-1.87;100.00;99715.19;4943982;29;20046;-61
2022/02/04 03:00:51;;;;;;;86.75;34.35;;;;;;;-2.10;100.00;99654.81;4944798;29;20058;-57
2022/02/04 03:03:36;;;;;;;90.32;35.50;;;;;;;-1.80;100.00;99699.84;4943499;29;20121;-55
2022/02/04 03:06:21;;;;;;;;;;;;;;;-1.76;100.00;99714.66;4930930;29;20514;-54
2022/02/04 03:09:06;;;;;;;86.10;35.03;;;;;;;-1.83;100.00;99714.44;4952528;28;19944;-57
2022/02/04 03:11:50;;;;;;;82.28;34.03;;;;;;;-1.81;100.00;99715.38;4980533;28;20154;-53
2022/02/04 03:14:35;;;;;;;78.38;33.53;;;;;;;-1.89;100.00;99722.97;4971804;28;20101;-54
2022/02/04 03:17:19;;;;;;;85.22;35.70;;;;;;;-2.10;100.00;99675.59;4970263;28;20134;-56
2022/02/04 03:20:09;;;;;;;84.00;33.45;;;;;;;-1.70;100.00;99724.34;4975775;28;20109;-55
2022/02/04 03:22:55;;;;;;;88.28;34.90;;;;;;;-1.65;100.00;99722.75;4976494;28;20516;-51
2022/02/04 03:25:45;;;;;;;87.65;36.45;;;;;;;-1.67;100.00;99714.03;4973976;28;20406;-54
2022/02/04 03:28:30;;;;;;;83.15;34.80;;;;;;;-1.54;100.00;99727.38;4974701;28;20097;-56
2022/02/04 03:31:15;;;;;;;82.90;34.60;;;;;;;-1.55;100.00;99725.63;4971341;28;20474;-56
2022/02/04 03:34:02;;;;;;;78.35;33.45;;;;;;;-1.59;100.00;99728.09;4983814;28;20080;-59
2022/02/04 03:36:47;;;;;;;80.03;33.28;;;;;;;-1.48;100.00;99731.88;4971518;28;20096;-56
2022/02/04 03:39:33;;;;;;;74.53;33.70;;;;;;;-1.47;100.00;99737.13;4972817;28;20157;-54
2022/02/04 03:42:17;;;;;;;78.60;32.35;;;;;;;-1.44;100.00;99745.00;4979682;28;20144;-56
2022/02/04 03:45:03;;;;;;;76.10;32.55;;;;;;;-1.45;100.00;99743.25;4983799;28;20092;-58
2022/02/04 03:47:49;;;;;;;80.68;32.63;;;;;;;-1.39;100.00;99738.19;4987544;28;20077;-57
2022/02/04 03:50:33;;;;;;;78.63;31.98;;;;;;;-1.42;100.00;99738.13;4985640;28;20052;-54
2022/02/04 03:53:18;;;;;;;75.63;31.63;;;;;;;-1.43;100.00;99735.47;4979967;28;20418;-58
2022/02/04 03:56:03;;;;;;;79.55;34.63;;;;;;;-1.44;100.00;99742.41;4973275;28;20045;-57
2022/02/04 03:58:47;;;;;;;72.72;31.63;;;;;;;-1.49;100.00;99750.91;4988527;28;20061;-55
2022/02/04 04:01:32;;;;;;;72.63;30.70;;;;;;;-1.54;100.00;99748.19;4972125;28;20133;-55
2022/02/04 04:04:17;;;;;;;72.30;31.13;;;;;;;-1.67;100.00;99748.69;4985188;28;20073;-59
2022/02/04 04:07:02;;;;;;;73.90;32.25;;;;;;;-1.60;100.00;99745.44;4987034;28;20100;-55
2022/02/04 04:09:53;;;;;;;75.60;30.80;;;;;;;-1.62;100.00;99749.69;4951380;28;20607;-56
2022/02/04 04:12:37;;;;;;;70.28;30.48;;;;;;;-1.67;100.00;99747.81;4957942;28;20062;-55
2022/02/04 04:15:22;;;;;;;69.45;31.50;;;;;;;-1.71;100.00;99749.44;4979937;28;20435;-55
2022/02/04 04:18:12;;;;;;;74.55;31.48;;;;;;;-1.82;100.00;99750.00;4966281;28;20105;-60
2022/02/04 04:20:57;;;;;;;80.68;30.63;;;;;;;-1.82;100.00;99756.06;4997839;28;20134;-56
2022/02/04 04:23:41;;;;;;;81.68;32.38;;;;;;;-1.97;100.00;99734.84;4983086;28;20093;-55
2022/02/04 04:26:26;;;;;;;75.03;30.80;;;;;;;-2.11;100.00;99746.56;4971640;28;20464;-55
2022/02/04 04:29:10;;;;;;;72.13;29.42;;;;;;;-2.54;100.00;99706.31;4984600;28;20092;-55
2022/02/04 04:31:55;;;;;;;75.43;30.73;;;;;;;-2.49;100.00;99754.03;4980984;28;20089;-62
2022/02/04 04:34:39;;;;;;;78.85;31.67;;;;;;;-2.57;100.00;99747.75;4975707;28;20097;-60
2022/02/04 04:37:24;;;;;;;75.22;31.60;;;;;;;-2.57;100.00;99753.78;4984775;28;20475;-60
2022/02/04 04:40:30;;;;;;;74.20;29.75;;;;;;;-2.70;100.00;99741.28;4977294;28;20052;-56
2022/02/04 05:31:38;;;;;;;70.70;28.10;;;;;;;-3.02;100.00;99792.94;4931801;29;20046;-58
2022/02/04 05:34:23;;;;;;;71.68;27.40;;;;;;;-3.05;100.00;99780.75;4925517;29;20046;-56
2022/02/04 05:37:10;;;;;;;;;;;;;;;-2.91;100.00;99794.16;4913681;29;20059;-58
2022/02/04 05:39:59;;;;;;;69.50;26.58;;;;;;;-2.93;100.00;99794.13;4911569;29;19926;-57
2022/02/04 05:42:51;;;;;;;63.67;25.92;;;;;;;-3.02;100.00;99765.28;4919678;29;20110;-62
2022/02/04 05:45:37;;;;;;;72.10;29.10;;;;;;;-2.70;100.00;99793.16;4885616;29;20062;-60
2022/02/04 05:48:23;;;;;;;74.18;28.88;;;;;;;-2.75;100.00;99794.72;4912856;29;20046;-57
2022/02/04 05:54:22;;;;;;;69.88;28.15;;;;;;;-2.69;100.00;99770.69;4913192;29;20086;-55
2022/02/04 05:57:16;;;;;;;63.33;26.42;;;;;;;-2.55;100.00;99797.94;4954035;28;20117;-57
2022/02/04 06:23:48;;;;;;;61.35;25.13;;;;;;;-2.52;100.00;99806.75;4982840;28;20065;-54
2022/02/04 06:26:33;;;;;;;59.22;24.77;;;;;;;-2.46;100.00;99808.66;4978674;28;20081;-60
2022/02/04 06:29:18;;;;;;;57.20;25.23;;;;;;;-2.47;100.00;99796.47;4985025;28;20113;-53
2022/02/04 06:32:04;;;;;;;60.55;25.35;;;;;;;-2.48;100.00;99806.00;4980991;28;20072;-56
2022/02/04 06:34:51;;;;;;;62.88;25.63;;;;;;;-2.43;100.00;99807.03;4970322;28;20505;-57
2022/02/04 06:37:36;;;;;;;60.55;24.63;;;;;;;-2.27;100.00;99803.16;4986011;28;20053;-58
2022/02/04 06:40:21;;;;;;;58.60;25.30;;;;;;;-2.41;100.00;99802.75;4982227;28;20525;-58
2022/02/04 06:43:05;;;;;;;59.40;25.27;;;;;;;-2.37;100.00;99806.34;4985250;28;20101;-59
2022/02/04 06:45:49;;;;;;;59.83;25.48;;;;;;;-2.17;100.00;99803.50;4984991;28;20049;-64
2022/02/04 06:48:34;;;;;;;61.58;24.73;;;;;;;-2.13;100.00;99809.69;4985911;28;20534;-59
2022/02/04 06:51:18;;;;;;;61.30;25.63;;;;;;;-2.06;100.00;99788.25;4985464;28;20143;-56
2022/02/04 06:54:03;;;;;;;62.25;24.13;;;;;;;-1.78;100.00;99803.81;4985646;28;20094;-57
2022/02/04 06:56:48;;;;;;;58.45;25.23;;;;;;;-1.55;100.00;99803.63;4973051;28;21431;-59
2022/02/04 06:59:34;;;;;;;54.33;25.02;;;;;;;-1.23;100.00;99802.78;4973865;28;20093;-59
2022/02/04 07:02:21;;;;;;;53.65;24.60;;;;;;;-1.01;100.00;99799.03;4969420;28;20058;-57
2022/02/04 07:05:11;;;;;;;64.32;25.65;;;;;;;-0.91;100.00;99788.03;4946673;28;20097;-59
2022/02/04 07:08:08;;;;;;;58.72;25.25;;;;;;;-0.75;100.00;99801.44;4979671;28;20054;-56
2022/02/04 07:11:06;;;;;;;67.28;25.08;;;;;;;-0.68;100.00;99800.75;4954559;28;20145;-57
2022/02/04 07:16:53;;;;;;;57.05;25.33;;;;;;;-0.72;100.00;99758.97;4977081;28;20081;-62
2022/02/04 07:19:48;;;;;;;54.00;23.42;;;;;;;-0.51;100.00;99759.50;4979956;28;20057;-61
2022/02/04 07:22:34;;;;;;;54.90;23.98;;;;;;;0.06;100.00;99810.31;4987260;28;20061;-57
2022/02/04 07:25:19;;;;;;;50.80;23.38;;;;;;;0.00;100.00;99778.91;4966411;28;20081;-72
2022/02/04 07:28:04;;;;;;;;;;;;;;;0.31;100.00;99812.59;4969328;28;20074;-60
2022/02/04 07:30:49;;;;;;;49.63;22.20;;;;;;;0.23;100.00;99819.38;4970335;28;19925;-61
2022/02/04 07:33:44;;;;;;;53.00;22.70;;;;;;;-0.11;100.00;99770.84;4958883;28;20418;-61
2022/02/04 07:42:35;;;;;;;51.88;23.52;;;;;;;0.34;100.00;99823.09;4973186;28;20061;-57
2022/02/04 07:45:23;;;;;;;46.35;21.70;;;;;;;0.37;100.00;99825.75;4974873;28;20162;-59
2022/02/04 07:48:08;;;;;;;54.65;23.80;;;;;;;0.22;100.00;99780.22;4950006;28;20065;-57
2022/02/04 07:50:53;;;;;;;47.45;22.15;;;;;;;0.55;100.00;99826.13;4981793;28;20379;-57
2022/02/04 07:53:38;;;;;;;54.13;22.52;;;;;;;0.25;100.00;99786.41;4958600;28;20078;-61
2022/02/04 07:56:24;;;;;;;50.53;21.55;;;;;;;0.74;100.00;99841.31;4977019;28;20142;-68
2022/02/04 07:59:09;;;;;;;52.05;22.92;;;;;;;0.89;100.00;99839.00;4976142;28;20057;-60
2022/02/04 08:01:54;;;;;;;47.33;21.02;;;;;;;1.15;100.00;99832.50;4972665;28;20184;-61
2022/02/04 08:04:41;;;;;;;46.85;21.15;;;;;;;1.55;100.00;99844.56;4973091;28;20111;-64
2022/02/04 08:07:29;;;;;;;51.22;21.92;;;;;;;1.95;100.00;99829.53;4990212;28;20078;-61
2022/02/04 08:19:31;;;;;;;42.08;20.55;;;;;;;6.97;98.14;99834.81;4976992;28;20518;-62
2022/02/04 08:31:28;;;;;;;35.92;19.38;;;;;;;10.26;67.77;99810.81;4973723;28;20109;-64
2022/02/04 08:37:51;;;;;;;33.47;19.27;;;;;;;11.58;52.82;99834.56;4984340;28;21117;-59
2022/02/04 08:47:08;;;;;;;34.03;19.25;;;;;;;13.56;46.23;99837.16;4971354;28;20506;-61
2022/02/04 08:55:47;;;;;;;26.67;17.40;;;;;;;15.45;39.77;99848.38;4976746;28;20085;-61
2022/02/04 08:58:36;;;;;;;29.77;18.88;;;;;;;15.86;35.99;99842.25;4976675;28;20159;-58
2022/02/04 09:01:28;;;;;;;31.00;18.67;;;;;;;16.37;37.25;99845.47;4967689;28;20559;-60
2022/02/04 09:04:17;;;;;;;30.63;18.65;;;;;;;16.89;41.14;99852.19;4981531;28;20069;-65
2022/02/04 09:07:05;;;;;;;30.45;19.08;;;;;;;16.65;34.04;99835.34;4981493;28;20608;-59
2022/02/04 09:09:56;;;;;;;28.08;18.80;;;;;;;16.92;37.41;99844.84;4975761;28;20138;-60
2022/02/04 09:22:06;;;;;;;25.58;16.42;;;;;;;18.96;28.87;99830.38;4979350;28;20113;-62
2022/02/04 09:24:29;;;;;;;22.95;15.35;;;;;;;19.62;26.84;99832.97;4975723;28;20077;-61
2022/02/04 09:27:14;;;;;;;23.13;15.70;;;;;;;19.93;26.43;99833.00;4984171;28;20049;-67
2022/02/04 09:29:59;;;;;;;23.85;14.23;;;;;;;19.76;28.69;99842.97;4986953;28;20064;-61
2022/02/04 09:32:43;;;;;;;;;;;;;;;20.40;28.08;99843.75;4969551;28;20585;-62
2022/02/04 09:35:28;;;;;;;21.80;14.98;;;;;;;19.57;27.34;99832.38;4985491;28;19971;-63
2022/02/04 09:38:12;;;;;;;20.58;14.88;;;;;;;19.81;27.21;99841.75;4972111;28;20049;-60
2022/02/04 09:40:57;;;;;;;24.80;15.25;;;;;;;19.73;25.41;99835.06;4980562;28;20098;-63
2022/02/04 09:43:41;;;;;;;20.83;15.15;;;;;;;19.77;27.77;99829.44;4967736;28;20085;-60
2022/02/04 09:46:29;;;;;;;23.45;14.45;;;;;;;20.19;26.53;99829.72;4985191;28;20060;-61
2022/02/04 09:49:26;;;;;;;22.85;14.93;;;;;;;19.99;26.65;99821.91;4987719;28;20169;-59
2022/02/04 10:16:40;;;;;;;20.08;13.15;;;;;;;18.85;31.64;99809.44;4936736;28;20109;-64
2022/02/04 10:19:49;;;;;;;22.80;12.82;;;;;;;18.63;28.63;99813.34;4949185;28;20050;-59
2022/02/04 10:22:24;;;;;;;20.60;13.30;;;;;;;18.27;26.63;99780.28;4960869;28;20090;-61
2022/02/04 10:25:09;;;;;;;22.50;14.38;;;;;;;17.97;28.68;99796.09;4958742;28;20582;-66
2022/02/04 10:27:55;;;;;;;19.65;14.30;;;;;;;17.68;28.55;99810.03;4964110;28;20070;-62
2022/02/04 10:30:40;;;;;;;21.85;15.55;;;;;;;17.71;30.51;99808.09;4938660;28;20309;-61
2022/02/04 10:33:24;;;;;;;24.13;15.50;;;;;;;18.16;26.63;99804.09;4968291;28;20713;-60
2022/02/04 10:36:10;;;;;;;24.25;14.93;;;;;;;18.15;25.76;99773.69;4982366;28;20081;-65
2022/02/04 10:38:55;;;;;;;22.05;14.95;;;;;;;18.62;24.82;99788.28;4953205;28;20526;-66
2022/02/04 10:41:42;;;;;;;22.98;15.88;;;;;;;18.90;25.65;99809.22;4984473;28;20053;-64
2022/02/04 10:44:30;;;;;;;22.95;15.48;;;;;;;19.05;24.11;99809.25;4953496;28;20526;-58
2022/02/04 10:47:43;;;;;;;24.20;16.35;;;;;;;19.18;24.30;99821.06;4954092;28;20054;-60
2022/02/04 10:53:50;;;;;;;24.92;15.93;;;;;;;17.67;26.00;99821.72;4986654;28;20177;-60
2022/02/04 11:00:10;;;;;;;24.05;16.15;;;;;;;17.11;27.03;99807.38;4943772;29;20158;-61
2022/02/04 11:03:06;;;;;;;25.00;16.00;;;;;;;16.51;29.05;99807.44;4909013;29;20586;-63
2022/02/04 11:06:17;;;;;;;22.83;16.33;;;;;;;15.76;29.53;99816.84;4931631;29;20137;-62
2022/02/04 11:09:15;;;;;;;27.30;16.35;;;;;;;15.45;31.76;99800.25;4930818;29;20105;-59
2022/02/04 11:21:39;;;;;;;25.52;16.23;;;;;;;15.76;32.10;99800.78;4933296;29;20045;-68
2022/02/04 11:34:16;;;;;;;21.67;13.20;;;;;;;14.61;34.43;99792.75;4947648;28;20167;-61
2022/02/04 11:55:22;;;;;;;24.42;15.27;;;;;;;15.01;32.62;99789.50;4971125;28;20097;-61
2022/02/04 11:58:10;;;;;;;24.52;14.57;;;;;;;15.21;32.00;99787.81;4986679;28;20057;-63
2022/02/04 12:01:05;;;;;;;18.42;12.13;;;;;;;15.41;32.43;99784.41;4991416;28;20176;-61
2022/02/04 12:04:14;;;;;;;23.17;13.20;;;;;;;15.18;32.58;99787.03;4977377;28;20060;-63
2022/02/04 12:06:59;;;;;;;16.63;10.70;;;;;;;15.06;31.96;99799.06;4982223;28;20065;-62
2022/02/04 12:09:47;;;;;;;;;;;;;;;14.85;31.34;99789.19;4984947;28;20112;-61
2022/02/04 12:12:56;;;;;;;18.60;12.88;;;;;;;13.30;35.41;99791.81;4984334;28;19932;-62
2022/02/04 12:15:49;;;;;;;21.52;12.80;;;;;;;12.07;38.77;99799.75;4984438;28;20562;-65
2022/02/04 12:18:34;;;;;;;20.40;12.98;;;;;;;11.50;41.60;99803.78;4980533;28;20054;-64
2022/02/04 12:21:21;;;;;;;21.98;12.68;;;;;;;10.88;42.91;99799.00;4987670;28;20053;-61
2022/02/04 12:24:10;;;;;;;25.70;15.07;;;;;;;10.49;46.92;99798.03;4985815;28;20152;-62
2022/02/04 12:27:28;;;;;;;22.90;13.13;;;;;;;9.89;49.65;99783.16;4985315;28;20134;-62
2022/02/04 12:30:36;;;;;;;22.17;13.18;;;;;;;9.48;52.51;99809.44;4993428;28;20144;-62
2022/02/04 12:33:20;;;;;;;20.15;12.20;;;;;;;8.81;55.13;99813.91;4983610;28;20050;-62
2022/02/04 12:36:05;;;;;;;20.10;12.35;;;;;;;8.56;56.42;99813.34;4984161;28;20081;-61
2022/02/04 12:38:57;;;;;;;22.70;12.80;;;;;;;8.42;59.02;99804.66;4983952;28;20052;-61
2022/02/04 12:41:45;;;;;;;21.75;11.85;;;;;;;8.22;60.34;99817.22;4971657;28;20160;-63
2022/02/04 12:44:34;;;;;;;20.70;12.10;;;;;;;7.91;62.25;99807.78;4980808;28;20046;-60
2022/02/04 12:47:24;;;;;;;19.02;11.15;;;;;;;7.49;63.74;99794.06;4985355;28;20521;-59
2022/02/04 12:50:09;;;;;;;17.33;11.07;;;;;;;7.21;65.50;99803.94;4985965;28;20517;-61
2022/02/04 12:52:54;;;;;;;17.63;9.95;;;;;;;7.03;67.14;99805.78;4988386;28;20069;-61
2022/02/04 12:55:59;;;;;;;17.83;9.73;;;;;;;6.87;68.25;99805.00;4987501;28;20053;-66
2022/02/04 13:02:03;;;;;;;17.13;9.55;;;;;;;6.42;72.19;99764.78;4986811;28;20054;-62
2022/02/04 13:11:07;;;;;;;17.17;8.93;;;;;;;6.01;78.31;99822.78;4976022;28;20057;-61
2022/02/04 13:13:59;;;;;;;18.95;9.52;;;;;;;5.82;78.83;99815.81;4967015;28;20057;-62
2022/02/04 13:16:43;;;;;;;16.77;9.27;;;;;;;5.61;80.16;99826.28;4985760;28;20104;-59
2022/02/04 13:19:28;;;;;;;20.80;11.60;;;;;;;5.48;81.82;99819.28;4975343;28;20072;-63
2022/02/04 13:22:14;;;;;;;17.95;9.98;;;;;;;5.49;82.86;99830.69;4958994;28;20430;-59
2022/02/04 13:25:08;;;;;;;15.77;9.00;;;;;;;5.17;84.92;99829.75;4971471;28;20093;-61
2022/02/04 13:28:06;;;;;;;15.95;8.50;;;;;;;4.79;87.67;99774.47;4967555;28;20149;-62
2022/02/04 13:31:14;;;;;;;19.55;9.35;;;;;;;4.99;88.27;99822.69;4985899;28;20046;-60
2022/02/04 13:33:59;;;;;;;15.80;9.13;;;;;;;4.86;89.60;99827.00;4980667;28;20049;-64
2022/02/04 13:36:49;;;;;;;21.15;10.52;;;;;;;4.74;90.67;99818.19;4976546;28;20052;-59
2022/02/04 13:43:00;;;;;;;14.55;9.00;;;;;;;4.15;95.67;99823.16;4909570;29;20095;-60
2022/02/04 13:45:55;;;;;;;18.95;9.48;;;;;;;4.35;97.31;99831.13;4910987;29;20171;-63
2022/02/04 13:48:57;;;;;;;;;;;;;;;4.26;97.75;99833.72;4911125;29;20062;-63
2022/02/04 13:51:55;;;;;;;16.75;9.02;;;;;;;3.81;99.46;99807.19;4910873;29;19925;-59
2022/02/04 13:57:37;;;;;;;16.88;8.82;;;;;;;3.43;100.00;99840.06;4926827;29;20061;-58
2022/02/04 14:00:32;;;;;;;19.10;8.95;;;;;;;3.32;100.00;99844.34;4924400;29;20110;-59
2022/02/04 14:03:28;;;;;;;17.42;9.15;;;;;;;2.95;100.00;99832.59;4925248;29;20138;-56
2022/02/04 14:06:22;;;;;;;18.92;8.98;;;;;;;2.86;100.00;99847.31;4917319;29;20150;-67
2022/02/04 14:09:13;;;;;;;17.10;8.65;;;;;;;2.50;100.00;99845.09;4913197;29;20098;-58
2022/02/04 14:11:59;;;;;;;17.42;9.75;;;;;;;2.54;100.00;99841.66;4925391;29;20555;-62
2022/02/04 14:14:57;;;;;;;19.17;9.98;;;;;;;2.52;100.00;99851.25;4912181;29;20050;-65
2022/02/04 14:17:42;;;;;;;18.05;8.82;;;;;;;2.32;100.00;99852.72;4915675;29;20066;-62
2022/02/04 14:20:27;;;;;;;19.65;9.35;;;;;;;2.55;100.00;99860.88;4970883;28;20050;-56
2022/02/04 14:23:13;;;;;;;19.27;9.50;;;;;;;2.66;100.00;99861.91;4983175;28;20541;-62
2022/02/04 14:28:53;;;;;;;21.08;9.98;;;;;;;2.39;100.00;99859.81;4971270;28;20454;-57
2022/02/04 14:31:46;;;;;;;21.17;10.10;;;;;;;2.21;100.00;99870.00;4956313;28;20052;-65
2022/02/04 14:34:51;;;;;;;18.65;9.57;;;;;;;2.38;100.00;99870.25;4953712;28;20480;-61
2022/02/04 14:52:55;;;;;;;16.17;8.63;;;;;;;2.08;100.00;99872.41;4977299;28;20062;-60
2022/02/04 15:01:35;;;;;;;18.77;8.30;;;;;;;2.06;100.00;99888.06;4968003;28;20073;-60
2022/02/04 15:04:45;;;;;;;19.58;8.30;;;;;;;2.07;100.00;99884.63;4985156;28;20060;-61
2022/02/04 15:07:34;;;;;;;20.95;9.23;;;;;;;1.92;100.00;99860.84;4974314;28;20097;-60
2022/02/04 15:10:28;;;;;;;18.25;9.30;;;;;;;2.06;100.00;99887.22;4975501;28;20052;-63
2022/02/04 15:13:16;;;;;;;19.25;9.30;;;;;;;2.08;100.00;99890.72;4989481;28;20056;-59
2022/02/04 15:16:03;;;;;;;18.70;9.27;;;;;;;2.07;100.00;99881.13;4972936;28;20084;-61
2022/02/04 15:18:47;;;;;;;19.77;9.27;;;;;;;2.08;100.00;99888.09;4962157;28;20052;-61
2022/02/04 15:21:33;;;;;;;19.42;9.23;;;;;;;2.06;100.00;99884.59;4988431;28;20104;-60
2022/02/04 15:24:18;;;;;;;18.38;9.73;;;;;;;1.78;100.00;99848.44;4989355;28;20057;-67
2022/02/04 15:27:05;;;;;;;18.10;9.10;;;;;;;1.96;100.00;99886.19;4988908;28;20065;-61
2022/02/04 15:29:52;;;;;;;21.77;10.05;;;;;;;1.97;100.00;99887.94;4975804;28;20180;-61
2022/02/04 15:32:36;;;;;;;16.05;8.57;;;;;;;1.98;100.00;99894.91;4956389;28;20050;-61
2022/02/04 15:35:21;;;;;;;18.40;9.13;;;;;;;1.80;100.00;99872.84;4986346;28;20950;-59
2022/02/04 15:38:08;;;;;;;20.35;9.27;;;;;;;1.90;100.00;99898.28;4986811;28;20058;-61
2022/02/04 15:40:54;;;;;;;20.80;9.13;;;;;;;1.76;100.00;99890.22;4974288;28;20157;-61
2022/02/04 15:43:40;;;;;;;24.05;10.38;;;;;;;1.74;100.00;99910.19;4973610;28;20112;-62
2022/02/04 15:58:18;;;;;;;15.43;8.05;;;;;;;1.35;100.00;99882.50;4969526;28;20054;-60
2022/02/04 16:01:19;;;;;;;14.60;7.57;;;;;;;1.20;100.00;99885.72;4968602;28;20049;-61
2022/02/04 16:06:50;;;;;;;13.20;6.97;;;;;;;1.26;100.00;99901.50;4973931;28;20049;-62
2022/02/04 16:09:35;;;;;;;14.80;7.45;;;;;;;1.21;100.00;99910.97;4968564;28;20109;-61
2022/02/04 16:12:27;;;;;;;14.05;6.65;;;;;;;1.10;100.00;99907.28;4974706;28;20128;-62
2022/02/04 16:15:39;;;;;;;14.35;6.97;;;;;;;0.98;100.00;99908.78;4971826;28;20108;-63
2022/02/04 16:18:22;;;;;;;14.10;6.65;;;;;;;0.83;100.00;99895.41;4981828;28;20116;-65
2022/02/04 16:21:18;;;;;;;15.60;7.00;;;;;;;0.84;100.00;99913.72;4987063;28;20422;-62
2022/02/04 16:26:58;;;;;;;14.75;7.10;;;;;;;0.58;100.00;99919.22;4970198;28;20070;-61
2022/02/04 16:29:45;;;;;;;13.20;6.93;;;;;;;0.20;100.00;99887.09;4981669;28;20144;-61
2022/02/04 16:32:31;;;;;;;11.90;6.60;;;;;;;0.05;100.00;99885.00;4981851;28;20053;-61
2022/02/04 16:35:16;;;;;;;13.85;7.03;;;;;;;0.42;100.00;99920.63;4978914;28;20109;-63
2022/02/04 16:38:04;;;;;;;16.38;7.68;;;;;;;0.52;100.00;99922.59;4985655;28;20049;-62
2022/02/04 16:40:53;;;;;;;13.43;7.28;;;;;;;0.43;100.00;99924.13;4972651;28;20144;-61
2022/02/04 16:43:40;;;;;;;13.70;7.18;;;;;;;0.31;100.00;99923.84;4971268;28;20077;-62
2022/02/04 16:46:26;;;;;;;12.95;7.45;;;;;;;0.40;100.00;99926.66;4953179;28;20142;-60
2022/02/04 16:49:10;;;;;;;13.77;7.10;;;;;;;0.40;100.00;99921.44;4981432;28;20060;-62
2022/02/04 16:51:56;;;;;;;12.18;6.75;;;;;;;0.30;100.00;99915.13;4985464;28;20104;-59
2022/02/04 16:54:40;;;;;;;15.75;7.72;;;;;;;0.03;100.00;99897.13;4986282;28;20053;-65
2022/02/04 16:57:25;;;;;;;16.40;7.72;;;;;;;0.25;100.00;99931.50;4974099;28;20471;-61
2022/02/04 17:00:22;;;;;;;17.38;7.65;;;;;;;0.24;100.00;99934.97;4978897;28;20046;-61
2022/02/04 17:03:09;;;;;;;16.23;7.85;;;;;;;0.14;100.00;99933.88;4969401;28;20098;-64
2022/02/04 17:06:01;;;;;;;14.10;7.95;;;;;;;0.17;100.00;99932.19;4966708;28;20526;-67
2022/02/04 17:08:52;;;;;;;16.30;8.02;;;;;;;0.25;100.00;99934.13;4971906;28;20077;-63
2022/02/04 17:11:42;;;;;;;16.40;8.32;;;;;;;0.07;100.00;99942.38;4974308;28;20057;-62
2022/02/04 17:14:28;;;;;;;17.70;8.57;;;;;;;0.04;100.00;99944.94;4985610;28;20510;-65
2022/02/04 17:17:16;;;;;;;13.98;7.93;;;;;;;0.10;100.00;99945.06;4988686;28;20530;-64
2022/02/04 17:20:13;;;;;;;18.15;8.45;;;;;;;0.20;100.00;99947.06;4984247;28;20530;-60
2022/02/04 17:23:02;;;;;;;17.67;8.27;;;;;;;0.28;100.00;99949.84;4970594;28;20061;-66
2022/02/04 17:25:48;;;;;;;18.58;8.00;;;;;;;0.29;100.00;99948.97;4968325;28;20141;-62
2022/02/04 17:28:33;;;;;;;16.88;8.65;;;;;;;0.16;100.00;99920.88;4965677;28;20050;-61
2022/02/04 17:31:19;;;;;;;18.35;8.95;;;;;;;0.20;100.00;99949.66;4981505;28;20066;-60
2022/02/04 17:34:06;;;;;;;20.15;8.15;;;;;;;0.18;100.00;99946.13;4975825;28;20108;-62
2022/02/04 17:36:52;;;;;;;17.70;8.60;;;;;;;0.17;100.00;99943.47;4981433;28;20687;-67
2022/02/04 17:39:38;;;;;;;20.45;9.43;;;;;;;0.13;100.00;99943.41;4981472;28;20169;-60
2022/02/04 17:42:25;;;;;;;19.00;9.35;;;;;;;0.17;100.00;99944.38;4984033;28;20525;-58
2022/02/04 17:45:16;;;;;;;19.92;9.82;;;;;;;-0.16;100.00;99894.03;4985758;28;20057;-61
2022/02/04 17:48:08;;;;;;;19.73;9.95;;;;;;;0.19;100.00;99947.03;4959135;28;20101;-59
2022/02/04 17:51:05;;;;;;;20.70;9.90;;;;;;;0.13;100.00;99950.38;4988250;28;20140;-60
2022/02/04 17:53:56;;;;;;;21.40;10.18;;;;;;;0.12;100.00;99942.50;4986598;28;20049;-58
2022/02/04 17:57:01;;;;;;;20.95;10.70;;;;;;;0.10;100.00;99945.06;4981445;28;20054;-64
2022/02/04 18:00:08;;;;;;;19.00;9.82;;;;;;;0.09;100.00;99948.53;4966347;28;20541;-60
2022/02/04 18:08:46;;;;;;;27.13;11.82;;;;;;;-0.39;100.00;99901.28;4983897;28;20088;-59
2022/02/04 18:11:31;;;;;;;24.73;12.07;;;;;;;-0.06;100.00;99948.16;4986000;28;20216;-59
2022/02/04 18:14:17;;;;;;;22.45;11.38;;;;;;;-0.10;100.00;99944.59;4985793;28;20092;-64
2022/02/04 18:17:02;;;;;;;24.10;11.88;;;;;;;-0.08;100.00;99948.09;4977322;28;20049;-59
2022/02/04 18:19:48;;;;;;;24.23;11.88;;;;;;;-0.18;100.00;99946.13;4972086;28;20049;-58
2022/02/04 18:22:35;;;;;;;26.80;12.70;;;;;;;-0.23;100.00;99933.84;4972660;28;20065;-59
2022/02/04 18:25:21;;;;;;;29.13;13.63;;;;;;;-0.34;100.00;99948.31;4956829;28;20048;-58
2022/02/04 18:28:05;;;;;;;;;;;;;;;-0.26;100.00;99950.28;4983524;28;20056;-59
2022/02/04 18:30:50;;;;;;;28.80;13.48;;;;;;;-0.27;100.00;99952.84;4984771;28;19933;-58
2022/02/04 18:33:35;;;;;;;26.60;13.20;;;;;;;-0.23;100.00;99942.50;4970387;28;20065;-62
2022/02/04 18:36:20;;;;;;;30.23;13.25;;;;;;;-0.20;100.00;99954.72;4955700;28;20088;-60
2022/02/04 18:42:55;;;;;;;26.83;13.52;;;;;;;-0.33;100.00;99955.25;4976621;28;20458;-68
2022/02/04 18:45:34;;;;;;;28.05;12.98;;;;;;;-0.36;100.00;99953.47;4974768;28;20046;-61
2022/02/04 18:48:22;;;;;;;26.90;12.90;;;;;;;-0.38;100.00;99949.97;4980034;28;20082;-65
2022/02/04 18:54:28;;;;;;;22.27;12.68;;;;;;;-0.55;100.00;99938.19;4983954;28;20137;-56
2022/02/04 18:57:21;;;;;;;23.15;11.23;;;;;;;-0.57;100.00;99945.09;4983840;28;20533;-59
2022/02/04 19:00:14;;;;;;;21.55;11.23;;;;;;;-0.65;100.00;99945.72;4971557;28;20053;-57